createdAt,value
2022-09-07T00:00:16.296Z,97383.78
2022-09-07T00:03:20.040Z,97381.75
2022-09-07T00:06:23.427Z,97378.06
2022-09-07T00:09:26.329Z,97371.25
2022-09-07T00:12:29.290Z,97367.56
2022-09-07T00:15:34.105Z,97377.25
2022-09-07T00:18:36.913Z,97382.56
2022-09-07T00:21:39.695Z,97381.19
2022-09-07T00:24:42.505Z,97379.31
2022-09-07T00:27:45.405Z,97388.31
2022-09-07T00:30:49.637Z,97381.59
2022-09-07T00:33:54.431Z,97381.28
2022-09-07T00:36:57.732Z,97383.94
2022-09-07T00:40:00.667Z,97386.91
2022-09-07T00:43:03.558Z,97384.22
2022-09-07T00:46:13.015Z,97385.63
2022-09-07T00:49:19.932Z,97379.91
2022-09-07T00:52:25.734Z,97381.56
2022-09-07T00:55:28.747Z,97388.72
2022-09-07T00:58:32.577Z,97390.16
2022-09-07T01:01:37.736Z,97384.22
2022-09-07T01:04:41.097Z,97389.03
2022-09-07T01:07:45.514Z,97403.25
2022-09-07T01:10:48.408Z,97407.78
2022-09-07T01:13:52.506Z,97404.28
2022-09-07T01:17:11.503Z,97393.84
2022-09-07T01:20:44.373Z,97386.44
2022-09-07T01:24:38.910Z,97382.16
2022-09-07T01:28:07.145Z,97372.13
2022-09-07T01:31:19.691Z,97364.72
2022-09-07T01:34:24.336Z,97374.13
2022-09-07T01:37:34.587Z,97375.03
2022-09-07T01:40:46.579Z,97379.31
2022-09-07T01:43:55.642Z,97379.91
2022-09-07T01:47:02.756Z,97382.81
2022-09-07T01:50:10.783Z,97380.81
2022-09-07T01:53:17.549Z,97379.38
2022-09-07T01:56:25.558Z,97382.66
2022-09-07T01:59:33.523Z,97390.63
2022-09-07T02:02:41.699Z,97387.97
2022-09-07T02:05:52.018Z,97385.19
2022-09-07T02:09:00.938Z,97383.31
2022-09-07T02:12:08.425Z,97380.00
2022-09-07T02:15:17.406Z,97384.28
2022-09-07T02:18:22.971Z,97387.38
2022-09-07T02:21:32.754Z,97387.38
2022-09-07T02:24:39.721Z,97384.50
2022-09-07T02:27:46.856Z,97386.13
2022-09-07T02:30:51.063Z,97379.97
2022-09-07T02:33:53.976Z,97382.88
2022-09-07T02:36:58.962Z,97379.97
2022-09-07T02:40:01.970Z,97376.31
2022-09-07T02:43:07.555Z,97380.41
2022-09-07T02:46:24.257Z,97374.69
2022-09-07T02:49:40.164Z,97376.53
2022-09-07T02:52:52.619Z,97379.19
2022-09-07T02:56:09.836Z,97372.00
2022-09-07T02:59:24.882Z,97369.34
2022-09-07T03:02:36.163Z,97357.03
2022-09-07T03:05:43.448Z,97357.91
2022-09-07T03:08:50.462Z,97359.97
2022-09-07T03:11:53.825Z,97363.47
2022-09-07T03:14:56.673Z,97373.28
2022-09-07T03:18:01.036Z,97366.97
2022-09-07T03:21:03.812Z,97367.53
2022-09-07T03:24:07.230Z,97357.94
2022-09-07T03:27:13.329Z,97356.69
2022-09-07T03:30:16.182Z,97358.31
2022-09-07T03:33:20.347Z,97349.94
2022-09-07T03:36:23.161Z,97353.63
2022-09-07T03:39:26.816Z,97355.25
2022-09-07T03:42:29.707Z,97355.63
2022-09-07T03:45:32.690Z,97361.19
2022-09-07T03:48:38.620Z,97359.97
2022-09-07T03:51:41.415Z,97351.34
2022-09-07T03:54:44.185Z,97355.50
2022-09-07T03:57:46.994Z,97355.06
2022-09-07T04:00:49.771Z,97356.91
2022-09-07T04:03:58.774Z,97366.94
2022-09-07T04:07:04.309Z,97368.69
2022-09-07T04:10:07.807Z,97361.31
2022-09-07T04:13:10.979Z,97359.03
2022-09-07T04:16:15.430Z,97355.00
2022-09-07T04:19:19.709Z,97359.47
2022-09-07T04:22:22.561Z,97359.53
2022-09-07T04:25:25.574Z,97363.63
2022-09-07T04:28:28.473Z,97360.97
2022-09-07T04:31:33.795Z,97358.75
2022-09-07T04:34:38.001Z,97363.69
2022-09-07T04:37:40.872Z,97361.03
2022-09-07T04:40:43.943Z,97366.56
2022-09-07T04:43:48.235Z,97352.63
2022-09-07T04:46:51.142Z,97350.19
2022-09-07T04:49:55.375Z,97361.25
2022-09-07T04:52:58.180Z,97365.09
2022-09-07T04:56:01.347Z,97371.06
2022-09-07T04:59:04.634Z,97371.25
2022-09-07T05:02:07.474Z,97369.06
2022-09-07T05:05:11.744Z,97369.44
2022-09-07T05:08:14.829Z,97380.13
2022-09-07T05:11:18.530Z,97386.22
2022-09-07T05:14:21.344Z,97379.91
2022-09-07T05:17:24.138Z,97389.28
2022-09-07T05:20:28.335Z,97389.28
2022-09-07T05:23:31.102Z,97387.06
2022-09-07T05:26:36.128Z,97391.94
2022-09-07T05:33:02.082Z,97399.06
2022-09-07T05:36:07.861Z,97396.56
2022-09-07T05:39:10.763Z,97386.13
2022-09-07T05:42:13.556Z,97397.88
2022-09-07T05:45:16.746Z,97388.84
2022-09-07T05:48:19.554Z,97391.19
2022-09-07T05:51:23.754Z,97392.16
2022-09-07T05:54:26.658Z,97391.22
2022-09-07T05:57:29.441Z,97382.50
2022-09-07T06:00:32.198Z,97370.72
2022-09-07T06:03:36.677Z,97366.09
2022-09-07T06:06:40.838Z,97350.41
2022-09-07T06:13:06.418Z,97346.06
2022-09-07T06:16:10.139Z,97333.75
2022-09-07T06:19:12.916Z,97324.56
2022-09-07T06:22:17.042Z,97316.44
2022-09-07T06:25:19.962Z,97303.63
2022-09-07T06:28:28.614Z,97299.53
2022-09-07T06:31:31.610Z,97292.25
2022-09-07T06:34:34.784Z,97287.72
2022-09-07T06:37:39.052Z,97281.59
2022-09-07T06:40:42.440Z,97276.38
2022-09-07T06:43:46.179Z,97270.38
2022-09-07T06:47:04.899Z,97259.56
2022-09-07T06:50:09.118Z,97247.59
2022-09-07T06:56:36.284Z,97226.69
2022-09-07T06:59:39.667Z,97224.66
2022-09-07T07:02:42.416Z,97218.94
2022-09-07T07:05:51.924Z,97217.34
2022-09-07T07:08:56.063Z,97207.56
2022-09-07T07:11:58.836Z,97212.56
2022-09-07T07:15:01.715Z,97214.59
2022-09-07T07:18:19.922Z,97213.63
2022-09-07T07:21:24.212Z,97208.31
2022-09-07T07:24:28.341Z,97203.66
2022-09-07T07:27:31.501Z,97206.06
2022-09-07T07:30:34.321Z,97209.00
2022-09-07T07:33:37.876Z,97204.94
2022-09-07T07:36:40.779Z,97205.22
2022-09-07T07:43:07.836Z,97191.47
2022-09-07T07:46:14.036Z,97183.63
2022-09-07T07:49:17.103Z,97185.19
2022-09-07T07:55:44.467Z,97180.91
2022-09-07T07:58:48.477Z,97180.91
2022-09-07T08:01:51.421Z,97184.66
2022-09-07T08:04:54.559Z,97186.84
2022-09-07T08:07:57.268Z,97190.06
2022-09-07T08:11:03.069Z,97180.16
2022-09-07T08:14:06.252Z,97174.09
2022-09-07T08:17:09.789Z,97177.31
2022-09-07T08:20:12.536Z,97186.47
2022-09-07T08:23:15.419Z,97188.03
2022-09-07T08:26:19.555Z,97189.59
2022-09-07T08:29:22.522Z,97188.50
2022-09-07T08:32:25.218Z,97201.34
2022-09-07T08:35:27.991Z,97199.22
2022-09-07T08:38:32.314Z,97209.94
2022-09-07T08:42:14.229Z,97209.41
2022-09-07T08:45:30.958Z,97207.31
2022-09-07T08:48:35.546Z,97208.13
2022-09-07T08:51:43.681Z,97212.75
2022-09-07T08:54:54.371Z,97227.09
2022-09-07T08:58:05.001Z,97230.25
2022-09-07T09:05:16.209Z,97184.56
2022-09-07T09:08:14.289Z,97183.38
2022-09-07T09:11:25.000Z,97182.25
2022-09-07T09:14:34.259Z,97183.09
2022-09-07T09:17:43.970Z,97189.59
2022-09-07T09:20:50.947Z,97177.44
2022-09-07T09:24:00.284Z,97162.72
2022-09-07T09:27:03.398Z,97162.78
2022-09-07T09:30:14.181Z,97168.72
2022-09-07T09:33:20.441Z,97164.72
2022-09-07T09:36:32.197Z,97164.72
2022-09-07T09:39:36.760Z,97162.38
2022-09-07T09:42:40.696Z,97170.09
2022-09-07T09:49:18.996Z,97167.19
2022-09-07T09:52:29.995Z,97150.28
2022-09-07T09:55:37.368Z,97161.31
2022-09-07T10:05:52.272Z,97154.06
2022-09-07T10:08:58.406Z,97169.13
2022-09-07T10:12:06.851Z,97177.47
2022-09-07T10:15:27.392Z,97175.09
2022-09-07T10:18:35.277Z,97175.59
2022-09-07T10:21:39.439Z,97181.78
2022-09-07T10:24:42.450Z,97188.72
2022-09-07T10:27:46.830Z,97185.44
2022-09-07T10:31:09.993Z,97194.53
2022-09-07T10:34:29.513Z,97194.81
2022-09-07T10:37:43.906Z,97201.03
2022-09-07T10:40:52.887Z,97212.31
2022-09-07T10:43:57.279Z,97216.88
2022-09-07T10:47:07.267Z,97213.97
2022-09-07T10:50:25.373Z,97212.41
2022-09-07T10:53:43.810Z,97213.75
2022-09-07T10:57:02.836Z,97208.13
2022-09-07T11:00:11.221Z,97199.50
2022-09-07T11:03:28.254Z,97193.19
2022-09-07T11:06:36.523Z,97199.53
2022-09-07T11:09:57.874Z,97212.44
2022-09-07T11:13:05.482Z,97212.19
2022-09-07T11:19:47.603Z,97200.84
2022-09-07T11:22:53.622Z,97197.69
2022-09-07T11:26:05.326Z,97189.59
2022-09-07T11:29:30.109Z,97199.94
2022-09-07T11:32:38.126Z,97191.63
2022-09-07T11:35:48.563Z,97188.69
2022-09-07T11:38:56.427Z,97187.09
2022-09-07T11:42:42.846Z,97170.94
2022-09-07T11:45:34.575Z,97168.75
2022-09-07T11:48:43.048Z,97165.81
2022-09-07T11:51:53.601Z,97169.31
2022-09-07T11:55:01.708Z,97170.41
2022-09-07T11:58:35.214Z,97176.34
2022-09-07T12:01:49.820Z,97176.34
2022-09-07T12:05:10.134Z,97174.19
2022-09-07T12:08:27.894Z,97183.88
2022-09-07T12:11:45.878Z,97169.13
2022-09-07T12:15:01.645Z,97158.88
2022-09-07T12:18:23.219Z,97155.84
2022-09-07T12:21:33.199Z,97152.59
2022-09-07T12:24:45.787Z,97156.41
2022-09-07T12:27:49.399Z,97151.53
2022-09-07T12:31:02.094Z,97143.38
2022-09-07T12:34:39.275Z,97142.59
2022-09-07T12:37:43.350Z,97135.44
2022-09-07T12:41:00.261Z,97137.41
2022-09-07T12:44:08.591Z,97133.50
2022-09-07T12:47:30.745Z,97131.31
2022-09-07T12:50:39.289Z,97130.81
2022-09-07T12:53:52.094Z,97128.72
2022-09-07T13:00:25.866Z,97131.47
2022-09-07T13:03:51.812Z,97129.72
2022-09-07T13:07:23.713Z,97132.44
2022-09-07T13:10:31.667Z,97124.44
2022-09-07T13:17:43.307Z,97124.31
2022-09-07T13:21:32.509Z,97126.19
2022-09-07T13:24:48.020Z,97122.06
2022-09-07T13:27:57.961Z,97122.56
2022-09-07T13:31:21.876Z,97114.47
2022-09-07T13:34:41.054Z,97117.69
2022-09-07T13:37:52.961Z,97107.81
2022-09-07T13:41:06.335Z,97112.75
2022-09-07T13:44:26.206Z,97111.59
2022-09-07T13:47:53.410Z,97103.09
2022-09-07T13:51:04.766Z,97110.09
2022-09-07T13:54:21.296Z,97096.78
2022-09-07T13:57:33.674Z,97102.63
2022-09-07T14:00:36.401Z,97098.84
2022-09-07T14:03:45.771Z,97100.00
2022-09-07T14:06:48.522Z,97089.25
2022-09-07T14:10:06.552Z,97084.75
2022-09-07T14:13:14.390Z,97085.75
2022-09-07T14:16:17.580Z,97074.38
2022-09-07T14:19:24.057Z,97075.41
2022-09-07T14:22:32.712Z,97062.97
2022-09-07T14:26:16.022Z,97071.72
2022-09-07T14:29:01.585Z,97074.38
2022-09-07T14:32:05.617Z,97071.97
2022-09-07T14:35:12.722Z,97068.44
2022-09-07T14:39:04.105Z,97071.16
2022-09-07T14:41:45.253Z,97066.56
2022-09-07T14:44:49.341Z,97076.47
2022-09-07T14:47:54.911Z,97069.47
2022-09-07T14:51:26.097Z,97072.75
2022-09-07T14:54:23.357Z,97073.84
2022-09-07T14:57:31.778Z,97067.94
2022-09-07T15:00:35.105Z,97063.63
2022-09-07T15:03:56.722Z,97052.97
2022-09-07T15:07:02.983Z,97056.28
2022-09-07T15:10:16.938Z,97059.63
2022-09-07T15:13:29.700Z,97063.94
2022-09-07T15:16:35.681Z,97060.72
2022-09-07T15:19:38.565Z,97058.78
2022-09-07T15:22:41.397Z,97057.94
2022-09-07T15:25:50.450Z,97056.06
2022-09-07T15:29:11.376Z,97047.66
2022-09-07T15:32:16.007Z,97054.66
2022-09-07T15:35:20.665Z,97040.91
2022-09-07T15:41:46.307Z,97039.28
2022-09-07T15:44:50.596Z,97035.84
2022-09-07T15:47:53.703Z,97036.13
2022-09-07T15:52:04.820Z,97032.56
2022-09-07T15:54:28.611Z,97028.31
2022-09-07T16:04:18.684Z,97004.41
2022-09-07T16:07:22.773Z,97003.66
2022-09-07T16:10:27.370Z,97007.22
2022-09-07T16:13:31.500Z,97009.66
2022-09-07T16:20:02.182Z,97031.34
2022-09-07T16:23:20.534Z,97036.16
2022-09-07T16:26:26.039Z,97047.25
2022-09-07T16:29:28.810Z,97063.78
2022-09-07T16:32:48.426Z,97060.31
2022-09-07T16:35:59.482Z,97061.66
2022-09-07T16:39:02.895Z,97047.16
2022-09-07T16:42:06.589Z,97039.63
2022-09-07T16:48:36.264Z,97027.25
2022-09-07T16:51:40.024Z,97026.75
2022-09-07T16:54:42.745Z,97050.13
2022-09-07T17:01:10.343Z,97028.47
2022-09-07T17:04:17.157Z,97019.84
2022-09-07T17:07:20.045Z,97026.72
2022-09-07T17:10:24.718Z,97023.09
2022-09-07T17:13:28.384Z,97032.75
2022-09-07T17:16:32.818Z,97033.00
2022-09-07T17:19:37.255Z,97033.97
2022-09-07T17:22:40.053Z,97026.44
2022-09-07T17:25:42.742Z,97019.44
2022-09-07T17:28:49.545Z,97012.50
2022-09-07T17:35:19.303Z,97005.34
2022-09-07T17:41:47.431Z,97008.28
2022-09-07T17:44:52.799Z,97001.53
2022-09-07T17:47:55.970Z,96992.69
2022-09-07T17:51:03.057Z,96982.41
2022-09-07T17:54:10.910Z,96986.63
2022-09-07T17:57:14.383Z,96989.44
2022-09-07T18:00:17.599Z,96999.59
2022-09-07T18:03:20.911Z,97004.63
2022-09-07T18:06:26.077Z,97005.50
2022-09-07T18:09:30.828Z,97014.19
2022-09-07T18:12:33.798Z,97017.78
2022-09-07T18:15:42.439Z,97018.94
2022-09-07T18:18:46.423Z,97012.09
2022-09-07T18:21:52.060Z,97020.44
2022-09-07T18:24:55.014Z,97020.69
2022-09-07T18:31:21.532Z,97028.72
2022-09-07T18:34:25.038Z,97029.06
2022-09-07T18:37:31.484Z,97040.88
2022-09-07T18:40:38.381Z,97028.91
2022-09-07T18:43:46.951Z,97020.13
2022-09-07T18:46:50.721Z,97018.59
2022-09-07T18:49:55.191Z,97027.38
2022-09-07T18:53:10.568Z,97029.00
2022-09-07T18:56:21.588Z,97030.84
2022-09-07T18:59:26.030Z,97033.34
2022-09-07T19:02:29.083Z,97027.22
2022-09-07T19:08:57.408Z,97016.06
2022-09-07T19:12:00.398Z,97022.91
2022-09-07T19:15:03.812Z,97020.47
2022-09-07T19:18:08.905Z,97031.69
2022-09-07T19:21:16.616Z,97025.06
2022-09-07T19:24:21.637Z,97031.69
2022-09-07T19:27:24.426Z,97038.66
2022-09-07T19:30:29.140Z,97029.53
2022-09-07T19:33:33.033Z,97022.47
2022-09-07T19:36:36.027Z,97020.75
2022-09-07T19:39:40.569Z,97033.81
2022-09-07T19:42:45.795Z,97025.81
2022-09-07T19:45:48.771Z,97023.19
2022-09-07T19:48:51.605Z,97026.19
2022-09-07T19:51:54.901Z,97036.53
2022-09-07T19:55:02.701Z,97026.91
2022-09-07T19:58:05.630Z,97020.50
2022-09-07T20:01:11.256Z,97029.50
2022-09-07T20:04:20.443Z,97020.19
2022-09-07T20:07:23.518Z,97031.03
2022-09-07T20:10:27.664Z,97041.53
2022-09-07T20:13:31.657Z,97038.13
2022-09-07T20:16:38.109Z,97039.97
2022-09-07T20:19:40.891Z,97030.84
2022-09-07T20:22:43.722Z,97028.16
2022-09-07T20:25:57.698Z,97023.41
2022-09-07T20:32:23.360Z,97027.97
2022-09-07T20:35:26.151Z,97030.25
2022-09-07T20:38:28.953Z,97019.78
2022-09-07T20:41:35.081Z,97028.28
2022-09-07T20:44:37.873Z,97022.63
2022-09-07T20:47:40.771Z,97028.59
2022-09-07T20:50:43.777Z,97031.47
2022-09-07T20:53:47.241Z,97040.22
2022-09-07T20:56:51.343Z,97044.44
2022-09-07T20:59:54.179Z,97056.03
2022-09-07T21:02:57.555Z,97073.63
2022-09-07T21:06:03.166Z,97075.94
2022-09-07T21:09:05.978Z,97085.34
2022-09-07T21:12:10.175Z,97088.44
2022-09-07T21:15:12.936Z,97090.16
2022-09-07T21:18:17.573Z,97086.66
2022-09-07T21:21:20.843Z,97082.72
2022-09-07T21:24:24.620Z,97071.56
2022-09-07T21:27:28.743Z,97061.84
2022-09-07T21:30:31.564Z,97059.75
2022-09-07T21:33:37.339Z,97068.06
2022-09-07T21:36:40.138Z,97057.06
2022-09-07T21:39:42.918Z,97070.63
2022-09-07T21:42:47.064Z,97053.81
2022-09-07T21:45:49.841Z,97048.63
2022-09-07T21:48:52.623Z,97048.94
2022-09-07T21:51:55.374Z,97036.44
2022-09-07T21:54:58.253Z,97027.59
2022-09-07T21:58:02.414Z,97023.25
2022-09-07T22:01:11.015Z,97007.09
2022-09-07T22:04:13.851Z,97009.75
2022-09-07T22:07:16.651Z,97006.53
2022-09-07T22:10:19.452Z,97009.19
2022-09-07T22:13:23.585Z,97004.19
2022-09-07T22:16:26.887Z,96999.41
2022-09-07T22:19:29.787Z,97003.38
2022-09-07T22:22:32.570Z,96995.94
2022-09-07T22:25:35.871Z,96998.25
2022-09-07T22:28:40.055Z,97000.84
2022-09-07T22:31:42.967Z,96995.28
2022-09-07T22:34:45.806Z,96997.22
2022-09-07T22:37:48.564Z,96995.38
2022-09-07T22:40:51.377Z,96993.19
2022-09-07T22:43:56.123Z,96998.19
2022-09-07T22:46:58.951Z,96997.28
2022-09-07T22:50:01.889Z,96997.78
2022-09-07T22:53:04.730Z,97001.22
2022-09-07T22:56:08.957Z,97011.00
2022-09-07T22:59:14.185Z,97001.94
2022-09-07T23:02:17.016Z,97019.00
2022-09-07T23:05:19.812Z,97000.91
2022-09-07T23:08:22.775Z,97004.53
2022-09-07T23:11:26.750Z,97003.50
2022-09-07T23:14:31.029Z,97003.16
2022-09-07T23:17:33.835Z,96993.31
2022-09-07T23:20:36.587Z,96992.69
2022-09-07T23:23:39.410Z,96999.53
2022-09-07T23:26:42.418Z,96993.16
2022-09-07T23:29:47.035Z,96987.34
2022-09-07T23:32:49.865Z,96992.69
2022-09-07T23:36:00.663Z,96994.22
2022-09-07T23:39:03.479Z,96998.31
2022-09-07T23:42:06.410Z,97001.47
2022-09-07T23:45:11.274Z,97002.22
2022-09-07T23:48:14.167Z,96997.19
2022-09-07T23:51:22.840Z,97009.63
2022-09-07T23:54:26.886Z,97008.91
2022-09-07T23:57:29.689Z,97007.81
